createdAt,value
2022-08-21T00:01:42.936Z,19.80
2022-08-21T00:04:10.546Z,19.80
2022-08-21T00:06:37.923Z,19.77
2022-08-21T00:09:06.920Z,19.74
2022-08-21T00:11:37.176Z,19.71
2022-08-21T00:14:05.265Z,19.68
2022-08-21T00:16:31.766Z,19.65
2022-08-21T00:18:58.676Z,19.64
2022-08-21T00:21:26.507Z,19.60
2022-08-21T00:23:53.261Z,19.57
2022-08-21T00:26:19.786Z,19.55
2022-08-21T00:28:47.050Z,19.48
2022-08-21T00:31:13.631Z,19.49
2022-08-21T00:33:40.222Z,19.44
2022-08-21T00:36:06.930Z,19.43
2022-08-21T00:38:34.459Z,19.41
2022-08-21T00:41:32.230Z,19.39
2022-08-21T00:43:51.286Z,19.34
2022-08-21T00:46:18.865Z,19.33
2022-08-21T00:48:45.457Z,19.25
2022-08-21T00:51:23.899Z,19.27
2022-08-21T00:53:54.502Z,19.20
2022-08-21T00:56:23.903Z,19.21
2022-08-21T00:58:55.035Z,19.18
2022-08-21T01:01:22.471Z,19.16
2022-08-21T01:03:50.152Z,19.13
2022-08-21T01:06:17.182Z,19.11
2022-08-21T01:08:47.080Z,19.08
2022-08-21T01:11:16.005Z,19.06
2022-08-21T01:13:47.031Z,19.02
2022-08-21T01:16:17.800Z,19.00
2022-08-21T01:18:45.835Z,18.98
2022-08-21T01:21:28.369Z,18.95
2022-08-21T01:23:56.766Z,18.92
2022-08-21T01:26:33.756Z,18.89
2022-08-21T01:29:06.580Z,18.87
2022-08-21T01:31:33.982Z,18.83
2022-08-21T01:34:00.805Z,18.81
2022-08-21T01:36:27.736Z,18.79
2022-08-21T01:38:54.391Z,18.76
2022-08-21T01:41:20.966Z,18.74
2022-08-21T01:43:47.682Z,18.72
2022-08-21T01:46:15.419Z,18.70
2022-08-21T01:48:42.964Z,18.68
2022-08-21T01:51:09.839Z,18.63
2022-08-21T01:53:37.653Z,18.63
2022-08-21T01:56:11.886Z,18.59
2022-08-21T01:58:40.851Z,18.55
2022-08-21T02:01:07.653Z,18.54
2022-08-21T02:03:36.170Z,18.51
2022-08-21T02:06:04.559Z,18.49
2022-08-21T02:08:31.279Z,18.47
2022-08-21T02:10:57.799Z,18.44
2022-08-21T02:13:24.390Z,18.40
2022-08-21T02:15:50.822Z,18.40
2022-08-21T02:18:17.257Z,18.35
2022-08-21T02:20:48.266Z,18.35
2022-08-21T02:23:15.785Z,18.30
2022-08-21T02:25:43.085Z,18.30
2022-08-21T02:28:12.812Z,18.28
2022-08-21T02:30:46.087Z,18.24
2022-08-21T02:33:13.646Z,18.22
2022-08-21T02:35:43.035Z,18.20
2022-08-21T02:38:13.057Z,18.18
2022-08-21T02:40:43.884Z,18.16
2022-08-21T02:43:16.442Z,18.11
2022-08-21T02:45:45.529Z,18.11
2022-08-21T02:48:15.667Z,18.09
2022-08-21T02:50:45.411Z,18.07
2022-08-21T02:53:17.188Z,18.04
2022-08-21T02:55:48.567Z,18.03
2022-08-21T02:58:18.630Z,18.01
2022-08-21T03:00:45.762Z,17.98
2022-08-21T03:03:15.427Z,17.94
2022-08-21T03:05:42.050Z,17.93
2022-08-21T03:08:11.306Z,17.91
2022-08-21T03:10:44.098Z,17.88
2022-08-21T03:13:11.455Z,17.86
2022-08-21T03:15:39.280Z,17.85
2022-08-21T03:18:06.636Z,17.82
2022-08-21T03:20:35.143Z,17.80
2022-08-21T03:23:02.776Z,17.79
2022-08-21T03:25:40.440Z,17.76
2022-08-21T03:28:13.331Z,17.74
2022-08-21T03:30:47.397Z,17.71
2022-08-21T03:33:15.437Z,17.69
2022-08-21T03:35:43.997Z,17.68
2022-08-21T03:38:10.771Z,17.65
2022-08-21T03:40:37.228Z,17.62
2022-08-21T03:43:03.673Z,17.62
2022-08-21T03:45:30.272Z,17.59
2022-08-21T03:47:58.650Z,17.58
2022-08-21T03:50:27.806Z,17.55
2022-08-21T03:52:55.089Z,17.55
2022-08-21T03:55:21.857Z,17.53
2022-08-21T03:57:48.351Z,17.52
2022-08-21T04:00:16.563Z,17.49
2022-08-21T04:02:44.574Z,17.47
2022-08-21T04:05:13.665Z,17.46
2022-08-21T04:07:40.179Z,17.44
2022-08-21T04:10:08.081Z,17.43
2022-08-21T04:12:34.652Z,17.40
2022-08-21T04:15:02.729Z,17.39
2022-08-21T04:17:29.231Z,17.38
2022-08-21T04:19:56.005Z,17.33
2022-08-21T04:22:22.794Z,17.33
2022-08-21T04:24:49.231Z,17.32
2022-08-21T04:27:15.718Z,17.31
2022-08-21T04:29:42.154Z,17.29
2022-08-21T04:32:08.747Z,17.27
2022-08-21T04:34:35.239Z,17.26
2022-08-21T04:37:01.666Z,17.24
2022-08-21T04:39:29.777Z,17.25
2022-08-21T04:41:56.672Z,17.24
2022-08-21T04:44:23.125Z,17.21
2022-08-21T04:46:49.579Z,17.21
2022-08-21T04:49:16.025Z,17.18
2022-08-21T04:51:42.633Z,17.14
2022-08-21T04:54:17.575Z,17.16
2022-08-21T04:56:47.305Z,17.14
2022-08-21T04:59:18.301Z,17.15
2022-08-21T05:01:46.064Z,17.14
2022-08-21T05:04:17.710Z,17.13
2022-08-21T05:06:47.598Z,17.11
2022-08-21T05:09:17.353Z,17.11
2022-08-21T05:11:44.859Z,17.09
2022-08-21T05:14:12.482Z,17.09
2022-08-21T05:16:39.570Z,17.06
2022-08-21T05:19:07.255Z,17.07
2022-08-21T05:21:35.672Z,17.06
2022-08-21T05:24:02.639Z,17.05
2022-08-21T05:26:29.124Z,17.04
2022-08-21T05:28:55.562Z,17.03
2022-08-21T05:31:24.065Z,17.04
2022-08-21T05:33:50.498Z,17.05
2022-08-21T05:36:19.339Z,17.02
2022-08-21T05:38:46.135Z,17.03
2022-08-21T05:41:12.765Z,17.03
2022-08-21T05:43:39.241Z,17.05
2022-08-21T05:46:07.433Z,17.04
2022-08-21T05:48:35.321Z,17.05
2022-08-21T05:51:08.056Z,17.05
2022-08-21T05:53:34.541Z,17.04
2022-08-21T05:56:01.314Z,17.06
2022-08-21T05:58:27.807Z,17.08
2022-08-21T06:00:54.415Z,17.09
2022-08-21T06:03:25.323Z,17.10
2022-08-21T06:05:52.814Z,17.12
2022-08-21T06:08:20.383Z,17.14
2022-08-21T06:10:48.805Z,17.16
2022-08-21T06:13:16.607Z,17.18
2022-08-21T06:15:43.365Z,17.22
2022-08-21T06:18:10.211Z,17.24
2022-08-21T06:20:37.012Z,17.24
2022-08-21T06:23:03.954Z,17.29
2022-08-21T06:25:30.817Z,17.27
2022-08-21T06:28:07.713Z,17.34
2022-08-21T06:30:34.858Z,17.36
2022-08-21T06:33:02.476Z,17.40
2022-08-21T06:35:30.060Z,17.44
2022-08-21T06:37:58.360Z,17.47
2022-08-21T06:40:25.866Z,17.50
2022-08-21T06:42:52.405Z,17.53
2022-08-21T06:45:18.919Z,17.57
2022-08-21T06:47:45.437Z,17.57
2022-08-21T06:50:11.886Z,17.59
2022-08-21T06:52:38.838Z,17.65
2022-08-21T06:55:08.368Z,17.70
2022-08-21T06:57:35.314Z,17.72
2022-08-21T07:00:03.797Z,17.75
2022-08-21T07:02:30.513Z,17.77
2022-08-21T07:04:56.973Z,17.78
2022-08-21T07:07:23.526Z,17.82
2022-08-21T07:09:49.946Z,17.89
2022-08-21T07:12:16.562Z,17.91
2022-08-21T07:14:43.755Z,17.94
2022-08-21T07:17:10.299Z,17.96
2022-08-21T07:19:36.767Z,18.01
2022-08-21T07:22:03.422Z,18.06
2022-08-21T07:24:30.270Z,18.12
2022-08-21T07:26:56.807Z,18.14
2022-08-21T07:29:23.313Z,18.19
2022-08-21T07:31:49.824Z,18.26
2022-08-21T07:34:17.363Z,18.29
2022-08-21T07:36:43.842Z,18.34
2022-08-21T07:39:10.287Z,18.36
2022-08-21T07:41:36.745Z,18.42
2022-08-21T07:44:04.040Z,18.45
2022-08-21T07:46:33.174Z,18.49
2022-08-21T07:48:59.656Z,18.53
2022-08-21T07:51:28.547Z,18.61
2022-08-21T07:53:57.917Z,18.65
2022-08-21T07:56:24.509Z,18.68
2022-08-21T07:58:50.997Z,18.72
2022-08-21T08:01:17.890Z,18.78
2022-08-21T08:03:44.645Z,18.84
2022-08-21T08:06:13.266Z,18.89
2022-08-21T08:08:41.559Z,18.94
2022-08-21T08:11:11.653Z,18.98
2022-08-21T08:13:43.101Z,19.00
2022-08-21T08:16:10.079Z,19.07
2022-08-21T08:18:36.656Z,19.12
2022-08-21T08:21:04.379Z,19.18
2022-08-21T08:23:31.491Z,19.24
2022-08-21T08:25:58.112Z,19.32
2022-08-21T08:28:25.533Z,19.33
2022-08-21T08:30:52.465Z,19.39
2022-08-21T08:33:18.974Z,19.46
2022-08-21T08:35:48.489Z,19.47
2022-08-21T08:38:19.656Z,19.48
2022-08-21T08:41:08.899Z,19.50
2022-08-21T08:43:35.846Z,19.56
2022-08-21T08:46:06.850Z,19.62
2022-08-21T08:48:52.802Z,19.70
2022-08-21T08:51:26.496Z,19.72
2022-08-21T08:53:58.175Z,19.75
2022-08-21T08:56:30.715Z,19.81
2022-08-21T08:59:08.063Z,19.83
2022-08-21T09:01:38.754Z,19.89
2022-08-21T09:04:06.884Z,19.94
2022-08-21T09:06:51.303Z,19.98
2022-08-21T09:09:23.522Z,19.93
2022-08-21T09:12:03.029Z,20.00
2022-08-21T09:14:54.120Z,20.06
2022-08-21T09:17:45.189Z,20.14
2022-08-21T09:20:41.523Z,20.22
2022-08-21T09:23:47.671Z,20.22
2022-08-21T09:26:18.019Z,20.34
2022-08-21T09:28:45.799Z,20.40
2022-08-21T09:31:35.397Z,20.45
2022-08-21T09:34:10.965Z,20.53
2022-08-21T09:36:46.770Z,20.58
2022-08-21T09:39:23.383Z,20.70
2022-08-21T09:41:59.279Z,20.71
2022-08-21T09:44:32.774Z,20.75
2022-08-21T09:46:59.252Z,20.79
2022-08-21T09:49:37.193Z,20.89
2022-08-21T09:52:07.570Z,20.90
2022-08-21T09:54:38.243Z,20.97
2022-08-21T09:57:29.394Z,20.99
2022-08-21T09:59:56.314Z,21.07
2022-08-21T10:02:32.174Z,21.06
2022-08-21T10:05:00.208Z,21.17
2022-08-21T10:07:31.133Z,21.17
2022-08-21T10:10:06.024Z,21.26
2022-08-21T10:13:02.778Z,21.24
2022-08-21T10:15:43.823Z,21.34
2022-08-21T10:18:30.911Z,21.35
2022-08-21T10:21:12.256Z,21.39
2022-08-21T10:23:51.810Z,21.41
2022-08-21T10:26:49.561Z,21.46
2022-08-21T10:29:40.479Z,21.57
2022-08-21T10:32:31.849Z,21.61
2022-08-21T10:35:03.107Z,21.66
2022-08-21T10:37:47.264Z,21.68
2022-08-21T10:40:23.094Z,21.74
2022-08-21T10:43:01.554Z,21.82
2022-08-21T10:45:40.142Z,21.84
2022-08-21T10:48:14.097Z,21.98
2022-08-21T10:50:50.294Z,21.94
2022-08-21T10:53:33.662Z,22.02
2022-08-21T10:56:27.179Z,22.06
2022-08-21T10:59:26.753Z,22.09
2022-08-21T11:02:09.960Z,22.11
2022-08-21T11:04:54.769Z,22.17
2022-08-21T11:07:34.016Z,22.20
2022-08-21T11:10:12.114Z,22.29
2022-08-21T11:12:45.778Z,22.35
2022-08-21T11:15:29.216Z,22.35
2022-08-21T11:18:42.609Z,22.33
2022-08-21T11:21:40.091Z,22.45
2022-08-21T11:24:34.958Z,22.50
2022-08-21T11:27:15.983Z,22.62
2022-08-21T11:29:48.702Z,22.63
2022-08-21T11:32:36.794Z,22.65
2022-08-21T11:35:11.953Z,22.67
2022-08-21T11:37:56.737Z,22.67
2022-08-21T11:40:38.572Z,22.77
2022-08-21T11:43:13.234Z,22.81
2022-08-21T11:45:52.631Z,22.75
2022-08-21T11:48:49.711Z,22.82
2022-08-21T11:51:29.395Z,22.87
2022-08-21T11:54:10.149Z,22.85
2022-08-21T11:56:43.494Z,22.87
2022-08-21T11:59:13.994Z,22.91
2022-08-21T12:01:46.211Z,22.97
2022-08-21T12:04:43.046Z,22.93
2022-08-21T12:07:18.634Z,22.95
2022-08-21T12:09:57.165Z,22.86
2022-08-21T12:12:30.395Z,22.98
2022-08-21T12:15:18.117Z,22.98
2022-08-21T12:17:56.797Z,23.05
2022-08-21T12:20:30.402Z,23.11
2022-08-21T12:23:05.676Z,23.01
2022-08-21T12:25:48.495Z,23.06
2022-08-21T12:28:22.617Z,22.99
2022-08-21T12:30:52.060Z,23.00
2022-08-21T12:33:37.082Z,22.94
2022-08-21T12:36:17.363Z,22.97
2022-08-21T12:38:52.030Z,23.06
2022-08-21T12:41:48.810Z,23.08
2022-08-21T12:44:22.279Z,23.09
2022-08-21T12:46:58.565Z,23.11
2022-08-21T12:49:36.018Z,23.07
2022-08-21T12:52:12.608Z,23.07
2022-08-21T12:54:44.395Z,23.11
2022-08-21T12:57:21.672Z,23.12
2022-08-21T12:59:55.700Z,23.08
2022-08-21T13:02:27.180Z,23.12
2022-08-21T13:04:56.464Z,23.14
2022-08-21T13:07:33.059Z,23.13
2022-08-21T13:10:19.997Z,23.10
2022-08-21T13:12:47.511Z,23.15
2022-08-21T13:15:14.874Z,23.13
2022-08-21T13:17:52.535Z,23.12
2022-08-21T13:20:24.436Z,23.17
2022-08-21T13:22:51.783Z,23.10
2022-08-21T13:25:22.481Z,23.11
2022-08-21T13:28:12.492Z,23.07
2022-08-21T13:30:44.238Z,23.14
2022-08-21T13:33:13.507Z,23.20
2022-08-21T13:35:58.096Z,23.19
2022-08-21T13:38:28.106Z,23.17
2022-08-21T13:41:31.732Z,23.09
2022-08-21T13:44:01.551Z,23.12
2022-08-21T13:46:31.587Z,23.13
2022-08-21T13:49:01.118Z,23.19
2022-08-21T13:51:28.073Z,23.21
2022-08-21T13:53:56.220Z,23.28
2022-08-21T13:56:41.955Z,23.27
2022-08-21T13:59:08.492Z,23.25
2022-08-21T14:01:58.133Z,23.31
2022-08-21T14:04:31.869Z,23.29
2022-08-21T14:06:58.711Z,23.22
2022-08-21T14:09:31.976Z,23.30
2022-08-21T14:12:02.162Z,23.35
2022-08-21T14:14:34.784Z,23.34
2022-08-21T14:17:24.015Z,23.33
2022-08-21T14:19:52.255Z,23.39
2022-08-21T14:22:31.351Z,23.33
2022-08-21T14:25:21.024Z,23.30
2022-08-21T14:27:50.461Z,23.32
2022-08-21T14:30:22.004Z,23.36
2022-08-21T14:32:48.940Z,23.32
2022-08-21T14:35:15.745Z,23.35
2022-08-21T14:37:43.509Z,23.41
2022-08-21T14:40:10.896Z,23.41
2022-08-21T14:42:38.179Z,23.48
2022-08-21T14:45:24.746Z,23.45
2022-08-21T14:47:54.897Z,23.45
2022-08-21T14:50:21.486Z,23.51
2022-08-21T14:52:48.004Z,23.51
2022-08-21T14:55:17.681Z,23.58
2022-08-21T14:57:50.897Z,23.57
2022-08-21T15:00:23.761Z,23.61
2022-08-21T15:02:53.651Z,23.62
2022-08-21T15:05:31.507Z,23.67
2022-08-21T15:07:59.698Z,23.69
2022-08-21T15:10:26.231Z,23.74
2022-08-21T15:12:52.762Z,23.75
2022-08-21T15:15:19.226Z,23.76
2022-08-21T15:17:48.292Z,23.80
2022-08-21T15:20:15.274Z,23.77
2022-08-21T15:22:41.772Z,23.81
2022-08-21T15:25:14.364Z,23.82
2022-08-21T15:27:41.112Z,23.78
2022-08-21T15:30:08.640Z,23.84
2022-08-21T15:32:35.212Z,23.80
2022-08-21T15:35:03.261Z,23.82
2022-08-21T15:37:30.041Z,23.84
2022-08-21T15:39:56.511Z,23.89
2022-08-21T15:42:24.323Z,23.86
2022-08-21T15:44:51.155Z,23.85
2022-08-21T15:47:21.949Z,23.88
2022-08-21T15:49:48.951Z,23.88
2022-08-21T15:52:19.351Z,23.80
2022-08-21T15:54:46.347Z,23.87
2022-08-21T15:57:14.940Z,23.87
2022-08-21T15:59:44.725Z,23.94
2022-08-21T16:02:16.630Z,24.00
2022-08-21T16:04:43.171Z,23.97
2022-08-21T16:07:10.409Z,24.01
2022-08-21T16:09:37.464Z,24.01
2022-08-21T16:12:06.478Z,24.04
2022-08-21T16:14:37.007Z,24.05
2022-08-21T16:17:08.342Z,24.06
2022-08-21T16:19:36.722Z,24.09
2022-08-21T16:22:03.401Z,24.15
2022-08-21T16:24:29.967Z,24.15
2022-08-21T16:26:58.310Z,24.12
2022-08-21T16:29:28.608Z,24.18
2022-08-21T16:31:55.850Z,24.21
2022-08-21T16:34:22.330Z,24.26
2022-08-21T16:36:48.800Z,24.29
2022-08-21T16:39:15.344Z,24.33
2022-08-21T16:41:41.890Z,24.36
2022-08-21T16:44:09.786Z,24.37
2022-08-21T16:46:40.814Z,24.45
2022-08-21T16:49:07.938Z,24.50
2022-08-21T16:51:34.514Z,24.53
2022-08-21T16:54:01.317Z,24.54
2022-08-21T16:56:27.854Z,24.56
2022-08-21T16:58:56.267Z,24.57
2022-08-21T17:01:26.426Z,24.61
2022-08-21T17:03:53.889Z,24.64
2022-08-21T17:06:23.779Z,24.65
2022-08-21T17:08:55.573Z,24.69
2022-08-21T17:11:37.549Z,24.69
2022-08-21T17:14:20.957Z,24.69
2022-08-21T17:16:51.179Z,24.69
2022-08-21T17:19:19.191Z,24.67
2022-08-21T17:21:45.810Z,24.68
2022-08-21T17:24:15.440Z,24.70
2022-08-21T17:26:43.921Z,24.70
2022-08-21T17:29:12.525Z,24.69
2022-08-21T17:31:40.847Z,24.71
2022-08-21T17:34:08.532Z,24.70
2022-08-21T17:36:35.565Z,24.70
2022-08-21T17:39:02.264Z,24.69
2022-08-21T17:41:28.792Z,24.69
2022-08-21T17:43:55.476Z,24.68
2022-08-21T17:46:26.717Z,24.65
2022-08-21T17:48:53.802Z,24.65
2022-08-21T17:51:20.611Z,24.63
2022-08-21T17:53:47.120Z,24.65
2022-08-21T17:56:16.413Z,24.64
2022-08-21T17:58:47.204Z,24.63
2022-08-21T18:01:13.899Z,24.62
2022-08-21T18:03:40.729Z,24.58
2022-08-21T18:06:07.431Z,24.57
2022-08-21T18:08:34.676Z,24.53
2022-08-21T18:11:01.327Z,24.52
2022-08-21T18:13:35.304Z,24.50
2022-08-21T18:16:03.122Z,24.48
2022-08-21T18:18:39.887Z,24.46
2022-08-21T18:21:06.656Z,24.43
2022-08-21T18:23:44.368Z,24.42
2022-08-21T18:26:14.291Z,24.37
2022-08-21T18:28:40.913Z,24.34
2022-08-21T18:31:09.747Z,24.31
2022-08-21T18:33:37.675Z,24.29
2022-08-21T18:36:04.832Z,24.26
2022-08-21T18:38:31.514Z,24.22
2022-08-21T18:41:09.530Z,24.18
2022-08-21T18:43:37.902Z,24.15
2022-08-21T18:46:05.071Z,24.12
2022-08-21T18:48:32.240Z,24.09
2022-08-21T18:50:59.066Z,24.06
2022-08-21T18:53:27.868Z,24.01
2022-08-21T18:55:57.068Z,23.98
2022-08-21T18:58:24.398Z,23.93
2022-08-21T19:00:52.631Z,23.91
2022-08-21T19:03:23.916Z,23.85
2022-08-21T19:05:52.193Z,23.83
2022-08-21T19:08:23.064Z,23.80
2022-08-21T19:10:52.108Z,23.76
2022-08-21T19:13:21.806Z,23.71
2022-08-21T19:15:52.637Z,23.65
2022-08-21T19:18:28.017Z,23.63
2022-08-21T19:20:56.105Z,23.59
2022-08-21T19:23:28.981Z,23.55
2022-08-21T19:28:50.553Z,23.45
2022-08-21T19:31:27.637Z,23.39
2022-08-21T19:34:01.579Z,23.37
2022-08-21T19:36:28.666Z,23.33
2022-08-21T19:38:55.165Z,23.30
2022-08-21T19:41:30.297Z,23.24
2022-08-21T19:43:59.574Z,23.21
2022-08-21T19:46:31.088Z,23.16
2022-08-21T19:48:59.007Z,23.11
2022-08-21T19:51:26.192Z,23.09
2022-08-21T19:53:57.204Z,23.03
2022-08-21T19:56:26.636Z,22.99
2022-08-21T19:58:53.539Z,22.94
2022-08-21T20:01:23.138Z,22.90
2022-08-21T20:03:54.137Z,22.86
2022-08-21T20:06:24.215Z,22.83
2022-08-21T20:08:51.518Z,22.81
2022-08-21T20:11:26.063Z,22.75
2022-08-21T20:13:53.384Z,22.72
2022-08-21T20:16:21.497Z,22.69
2022-08-21T20:18:48.915Z,22.67
2022-08-21T20:21:15.762Z,22.63
2022-08-21T20:23:48.845Z,22.59
2022-08-21T20:26:16.519Z,22.57
2022-08-21T20:28:43.133Z,22.53
2022-08-21T20:31:10.463Z,22.53
2022-08-21T20:33:37.932Z,22.49
2022-08-21T20:36:04.607Z,22.46
2022-08-21T20:38:31.686Z,22.46
2022-08-21T20:40:58.466Z,22.40
2022-08-21T20:43:26.746Z,22.40
2022-08-21T20:45:55.252Z,22.40
2022-08-21T20:48:29.016Z,22.38
2022-08-21T20:51:14.518Z,22.33
2022-08-21T20:54:00.565Z,22.34
2022-08-21T20:56:36.756Z,22.31
2022-08-21T20:59:11.290Z,22.28
2022-08-21T21:01:38.908Z,22.25
2022-08-21T21:04:13.979Z,22.26
2022-08-21T21:06:50.553Z,22.22
2022-08-21T21:09:29.343Z,22.21
2022-08-21T21:12:03.047Z,22.19
2022-08-21T21:14:41.555Z,22.14
2022-08-21T21:17:28.223Z,22.14
2022-08-21T21:20:10.419Z,22.10
2022-08-21T21:22:56.236Z,22.08
2022-08-21T21:25:39.928Z,22.05
2022-08-21T21:28:12.966Z,21.98
2022-08-21T21:30:46.647Z,21.98
2022-08-21T21:33:16.597Z,21.97
2022-08-21T21:35:53.984Z,21.97
2022-08-21T21:38:51.790Z,21.93
2022-08-21T21:41:44.783Z,21.91
2022-08-21T21:44:33.808Z,21.88
2022-08-21T21:47:03.582Z,21.87
2022-08-21T21:49:36.069Z,21.84
2022-08-21T21:52:14.619Z,21.82
2022-08-21T21:55:05.324Z,21.80
2022-08-21T21:58:16.979Z,21.73
2022-08-21T22:00:52.351Z,21.74
2022-08-21T22:04:20.600Z,21.70
2022-08-21T22:07:12.438Z,21.67
2022-08-21T22:09:44.523Z,21.64
2022-08-21T22:12:29.797Z,21.64
2022-08-21T22:14:57.187Z,21.59
2022-08-21T22:17:46.395Z,21.58
2022-08-21T22:20:34.435Z,21.53
2022-08-21T22:23:06.652Z,21.52
2022-08-21T22:25:42.279Z,21.49
2022-08-21T22:28:13.667Z,21.46
2022-08-21T22:30:50.222Z,21.43
2022-08-21T22:33:29.273Z,21.38
2022-08-21T22:35:58.824Z,21.39
2022-08-21T22:38:33.736Z,21.36
2022-08-21T22:41:17.293Z,21.34
2022-08-21T22:43:51.724Z,21.29
2022-08-21T22:46:30.363Z,21.22
2022-08-21T22:49:05.170Z,21.21
2022-08-21T22:51:42.512Z,21.20
2022-08-21T22:54:21.652Z,21.18
2022-08-21T22:56:59.214Z,21.15
2022-08-21T22:59:29.832Z,21.12
2022-08-21T23:02:07.324Z,21.10
2022-08-21T23:04:48.195Z,21.06
2022-08-21T23:07:34.034Z,21.04
2022-08-21T23:10:01.262Z,21.03
2022-08-21T23:12:37.111Z,21.01
2022-08-21T23:18:21.098Z,20.95
2022-08-21T23:20:57.578Z,20.92
2022-08-21T23:23:30.842Z,20.89
2022-08-21T23:26:25.536Z,20.86
2022-08-21T23:29:12.597Z,20.85
2022-08-21T23:32:19.382Z,20.82
2022-08-21T23:35:10.287Z,20.78
2022-08-21T23:37:51.654Z,20.77
2022-08-21T23:40:50.487Z,20.74
2022-08-21T23:43:44.170Z,20.70
2022-08-21T23:46:47.763Z,20.68
2022-08-21T23:49:45.189Z,20.66
2022-08-21T23:52:34.968Z,20.61
2022-08-21T23:55:13.549Z,20.63
2022-08-21T23:58:12.273Z,20.59
